sensor_id;sensor_type;location;lat;lon;timestamp;P1;durP1;ratioP1;P2;durP2;ratioP2
17993;SDS011;9122;48.406;9.984;2023-02-28T00:02:43;5.10;;;4.70;;
17993;SDS011;9122;48.406;9.984;2023-02-28T00:05:28;5.70;;;4.83;;
17993;SDS011;9122;48.406;9.984;2023-02-28T00:08:13;4.60;;;4.20;;
17993;SDS011;9122;48.406;9.984;2023-02-28T00:11:02;4.63;;;4.23;;
17993;SDS011;9122;48.406;9.984;2023-02-28T00:13:51;6.93;;;4.90;;
17993;SDS011;9122;48.406;9.984;2023-02-28T00:16:36;3.80;;;3.50;;
17993;SDS011;9122;48.406;9.984;2023-02-28T00:19:21;4.73;;;4.33;;
17993;SDS011;9122;48.406;9.984;2023-02-28T00:22:05;4.60;;;4.13;;
17993;SDS011;9122;48.406;9.984;2023-02-28T00:24:52;3.97;;;3.50;;
17993;SDS011;9122;48.406;9.984;2023-02-28T00:27:38;4.27;;;3.87;;
17993;SDS011;9122;48.406;9.984;2023-02-28T00:30:23;4.30;;;4.00;;
17993;SDS011;9122;48.406;9.984;2023-02-28T00:33:08;6.50;;;3.97;;
17993;SDS011;9122;48.406;9.984;2023-02-28T00:36:00;4.60;;;4.20;;
17993;SDS011;9122;48.406;9.984;2023-02-28T00:38:49;4.10;;;3.73;;
17993;SDS011;9122;48.406;9.984;2023-02-28T00:41:33;4.00;;;3.70;;
17993;SDS011;9122;48.406;9.984;2023-02-28T00:44:18;4.30;;;3.90;;
17993;SDS011;9122;48.406;9.984;2023-02-28T00:47:05;4.47;;;4.07;;
17993;SDS011;9122;48.406;9.984;2023-02-28T00:49:49;4.67;;;4.10;;
17993;SDS011;9122;48.406;9.984;2023-02-28T00:52:34;4.73;;;4.27;;
17993;SDS011;9122;48.406;9.984;2023-02-28T00:55:18;4.63;;;4.27;;
17993;SDS011;9122;48.406;9.984;2023-02-28T00:58:05;4.70;;;4.00;;
17993;SDS011;9122;48.406;9.984;2023-02-28T01:00:50;4.80;;;4.27;;
17993;SDS011;9122;48.406;9.984;2023-02-28T01:03:36;5.03;;;4.53;;
17993;SDS011;9122;48.406;9.984;2023-02-28T01:06:20;4.90;;;4.33;;
17993;SDS011;9122;48.406;9.984;2023-02-28T01:09:05;4.33;;;3.93;;
17993;SDS011;9122;48.406;9.984;2023-02-28T01:11:51;4.20;;;3.80;;
17993;SDS011;9122;48.406;9.984;2023-02-28T01:14:35;4.20;;;3.80;;
17993;SDS011;9122;48.406;9.984;2023-02-28T01:17:20;4.73;;;4.27;;
17993;SDS011;9122;48.406;9.984;2023-02-28T01:20:05;4.67;;;4.20;;
17993;SDS011;9122;48.406;9.984;2023-02-28T01:22:50;6.17;;;4.47;;
17993;SDS011;9122;48.406;9.984;2023-02-28T01:25:35;4.57;;;4.17;;
17993;SDS011;9122;48.406;9.984;2023-02-28T01:28:20;4.77;;;4.37;;
17993;SDS011;9122;48.406;9.984;2023-02-28T01:31:05;4.77;;;4.37;;
17993;SDS011;9122;48.406;9.984;2023-02-28T01:33:50;4.97;;;4.40;;
17993;SDS011;9122;48.406;9.984;2023-02-28T01:36:34;6.03;;;4.60;;
17993;SDS011;9122;48.406;9.984;2023-02-28T01:39:19;4.77;;;4.37;;
17993;SDS011;9122;48.406;9.984;2023-02-28T01:42:04;6.13;;;4.70;;
17993;SDS011;9122;48.406;9.984;2023-02-28T01:47:45;5.00;;;4.53;;
17993;SDS011;9122;48.406;9.984;2023-02-28T01:50:34;6.07;;;4.17;;
17993;SDS011;9122;48.406;9.984;2023-02-28T01:53:24;5.63;;;4.60;;
17993;SDS011;9122;48.406;9.984;2023-02-28T01:56:16;4.90;;;4.50;;
17993;SDS011;9122;48.406;9.984;2023-02-28T01:59:04;6.43;;;4.97;;
17993;SDS011;9122;48.406;9.984;2023-02-28T02:01:49;5.40;;;4.60;;
17993;SDS011;9122;48.406;9.984;2023-02-28T02:04:36;6.00;;;5.40;;
17993;SDS011;9122;48.406;9.984;2023-02-28T02:07:29;5.20;;;4.73;;
17993;SDS011;9122;48.406;9.984;2023-02-28T02:10:18;4.80;;;4.37;;
17993;SDS011;9122;48.406;9.984;2023-02-28T02:25:53;5.13;;;4.73;;
17993;SDS011;9122;48.406;9.984;2023-02-28T02:35:07;5.73;;;4.97;;
17993;SDS011;9122;48.406;9.984;2023-02-28T02:44:07;5.40;;;5.00;;
17993;SDS011;9122;48.406;9.984;2023-02-28T02:47:09;5.63;;;5.13;;
17993;SDS011;9122;48.406;9.984;2023-02-28T02:49:57;5.23;;;4.73;;
17993;SDS011;9122;48.406;9.984;2023-02-28T02:52:48;5.53;;;5.03;;
17993;SDS011;9122;48.406;9.984;2023-02-28T02:55:37;5.70;;;5.00;;
17993;SDS011;9122;48.406;9.984;2023-02-28T02:58:24;5.43;;;4.77;;
17993;SDS011;9122;48.406;9.984;2023-02-28T03:01:14;4.60;;;4.23;;
17993;SDS011;9122;48.406;9.984;2023-02-28T03:04:12;5.80;;;5.10;;
17993;SDS011;9122;48.406;9.984;2023-02-28T03:07:00;5.60;;;5.10;;
17993;SDS011;9122;48.406;9.984;2023-02-28T03:09:51;5.13;;;4.67;;
17993;SDS011;9122;48.406;9.984;2023-02-28T03:12:40;4.70;;;4.40;;
17993;SDS011;9122;48.406;9.984;2023-02-28T03:16:08;6.43;;;5.27;;
17993;SDS011;9122;48.406;9.984;2023-02-28T03:34:28;5.93;;;5.43;;
17993;SDS011;9122;48.406;9.984;2023-02-28T03:37:19;7.93;;;4.93;;
17993;SDS011;9122;48.406;9.984;2023-02-28T03:40:10;5.63;;;5.13;;
17993;SDS011;9122;48.406;9.984;2023-02-28T03:42:59;5.30;;;4.90;;
17993;SDS011;9122;48.406;9.984;2023-02-28T03:45:48;5.30;;;4.80;;
17993;SDS011;9122;48.406;9.984;2023-02-28T03:48:45;5.90;;;5.40;;
17993;SDS011;9122;48.406;9.984;2023-02-28T03:51:34;6.13;;;5.50;;
17993;SDS011;9122;48.406;9.984;2023-02-28T03:54:25;5.93;;;4.73;;
17993;SDS011;9122;48.406;9.984;2023-02-28T03:57:27;5.87;;;5.37;;
17993;SDS011;9122;48.406;9.984;2023-02-28T04:00:20;5.57;;;5.17;;
17993;SDS011;9122;48.406;9.984;2023-02-28T04:03:11;5.67;;;5.17;;
17993;SDS011;9122;48.406;9.984;2023-02-28T04:05:56;6.33;;;5.70;;
17993;SDS011;9122;48.406;9.984;2023-02-28T04:08:42;5.63;;;5.03;;
17993;SDS011;9122;48.406;9.984;2023-02-28T04:11:32;7.93;;;5.47;;
17993;SDS011;9122;48.406;9.984;2023-02-28T04:14:18;5.60;;;5.10;;
17993;SDS011;9122;48.406;9.984;2023-02-28T04:17:03;7.17;;;5.93;;
17993;SDS011;9122;48.406;9.984;2023-02-28T04:19:48;6.90;;;6.17;;
17993;SDS011;9122;48.406;9.984;2023-02-28T04:22:33;7.63;;;6.20;;
17993;SDS011;9122;48.406;9.984;2023-02-28T04:25:18;7.00;;;6.13;;
17993;SDS011;9122;48.406;9.984;2023-02-28T04:28:03;6.40;;;5.80;;
17993;SDS011;9122;48.406;9.984;2023-02-28T04:30:53;7.87;;;6.07;;
17993;SDS011;9122;48.406;9.984;2023-02-28T04:33:39;6.37;;;5.53;;
17993;SDS011;9122;48.406;9.984;2023-02-28T04:36:23;7.57;;;6.77;;
17993;SDS011;9122;48.406;9.984;2023-02-28T04:39:08;6.30;;;5.70;;
17993;SDS011;9122;48.406;9.984;2023-02-28T04:41:53;7.93;;;7.13;;
17993;SDS011;9122;48.406;9.984;2023-02-28T04:44:38;7.83;;;6.57;;
17993;SDS011;9122;48.406;9.984;2023-02-28T04:47:22;7.90;;;6.90;;
17993;SDS011;9122;48.406;9.984;2023-02-28T04:50:10;7.20;;;6.53;;
17993;SDS011;9122;48.406;9.984;2023-02-28T04:52:54;6.60;;;5.97;;
17993;SDS011;9122;48.406;9.984;2023-02-28T04:55:40;7.27;;;6.43;;
17993;SDS011;9122;48.406;9.984;2023-02-28T04:58:24;9.77;;;7.20;;
17993;SDS011;9122;48.406;9.984;2023-02-28T05:01:32;11.23;;;7.60;;
17993;SDS011;9122;48.406;9.984;2023-02-28T05:04:17;8.63;;;7.17;;
17993;SDS011;9122;48.406;9.984;2023-02-28T05:07:02;8.40;;;7.57;;
17993;SDS011;9122;48.406;9.984;2023-02-28T05:09:47;8.23;;;7.33;;
17993;SDS011;9122;48.406;9.984;2023-02-28T05:12:31;6.40;;;5.80;;
17993;SDS011;9122;48.406;9.984;2023-02-28T05:15:16;8.93;;;7.10;;
17993;SDS011;9122;48.406;9.984;2023-02-28T05:18:01;8.57;;;7.67;;
17993;SDS011;9122;48.406;9.984;2023-02-28T05:20:45;8.53;;;6.57;;
17993;SDS011;9122;48.406;9.984;2023-02-28T05:23:29;7.83;;;7.03;;
17993;SDS011;9122;48.406;9.984;2023-02-28T05:26:14;11.30;;;7.43;;
17993;SDS011;9122;48.406;9.984;2023-02-28T05:28:59;8.73;;;7.83;;
17993;SDS011;9122;48.406;9.984;2023-02-28T05:31:43;8.87;;;7.97;;
17993;SDS011;9122;48.406;9.984;2023-02-28T05:34:28;8.73;;;7.80;;
17993;SDS011;9122;48.406;9.984;2023-02-28T05:37:12;9.07;;;7.20;;
17993;SDS011;9122;48.406;9.984;2023-02-28T05:39:58;7.60;;;6.80;;
17993;SDS011;9122;48.406;9.984;2023-02-28T05:42:42;9.30;;;7.80;;
17993;SDS011;9122;48.406;9.984;2023-02-28T05:45:27;8.13;;;7.33;;
17993;SDS011;9122;48.406;9.984;2023-02-28T05:48:11;8.20;;;7.40;;
17993;SDS011;9122;48.406;9.984;2023-02-28T05:50:57;9.17;;;8.27;;
17993;SDS011;9122;48.406;9.984;2023-02-28T05:53:42;9.80;;;8.20;;
17993;SDS011;9122;48.406;9.984;2023-02-28T05:56:27;11.30;;;8.57;;
17993;SDS011;9122;48.406;9.984;2023-02-28T05:59:12;8.50;;;7.70;;
17993;SDS011;9122;48.406;9.984;2023-02-28T06:01:57;10.23;;;8.13;;
17993;SDS011;9122;48.406;9.984;2023-02-28T06:04:42;10.13;;;8.40;;
17993;SDS011;9122;48.406;9.984;2023-02-28T06:07:27;8.57;;;7.67;;
17993;SDS011;9122;48.406;9.984;2023-02-28T06:10:12;8.83;;;7.57;;
17993;SDS011;9122;48.406;9.984;2023-02-28T06:12:59;9.70;;;8.70;;
17993;SDS011;9122;48.406;9.984;2023-02-28T06:15:46;9.47;;;8.57;;
17993;SDS011;9122;48.406;9.984;2023-02-28T06:18:31;9.30;;;8.30;;
17993;SDS011;9122;48.406;9.984;2023-02-28T06:21:15;10.30;;;9.30;;
17993;SDS011;9122;48.406;9.984;2023-02-28T06:24:00;11.30;;;9.57;;
17993;SDS011;9122;48.406;9.984;2023-02-28T06:26:46;9.13;;;7.57;;
17993;SDS011;9122;48.406;9.984;2023-02-28T06:29:31;12.73;;;8.77;;
17993;SDS011;9122;48.406;9.984;2023-02-28T06:32:16;8.03;;;6.83;;
17993;SDS011;9122;48.406;9.984;2023-02-28T06:35:00;12.73;;;9.13;;
17993;SDS011;9122;48.406;9.984;2023-02-28T06:37:45;11.60;;;8.80;;
17993;SDS011;9122;48.406;9.984;2023-02-28T06:40:31;12.50;;;9.47;;
17993;SDS011;9122;48.406;9.984;2023-02-28T06:43:19;11.87;;;9.53;;
17993;SDS011;9122;48.406;9.984;2023-02-28T06:46:04;11.67;;;9.13;;
17993;SDS011;9122;48.406;9.984;2023-02-28T06:48:50;12.07;;;10.03;;
17993;SDS011;9122;48.406;9.984;2023-02-28T06:51:36;11.57;;;10.00;;
17993;SDS011;9122;48.406;9.984;2023-02-28T06:54:22;11.73;;;9.23;;
17993;SDS011;9122;48.406;9.984;2023-02-28T06:57:07;12.83;;;9.70;;
17993;SDS011;9122;48.406;9.984;2023-02-28T06:59:52;10.13;;;9.13;;
17993;SDS011;9122;48.406;9.984;2023-02-28T07:02:37;12.33;;;10.43;;
17993;SDS011;9122;48.406;9.984;2023-02-28T07:05:22;13.00;;;10.50;;
17993;SDS011;9122;48.406;9.984;2023-02-28T07:08:06;11.23;;;8.67;;
17993;SDS011;9122;48.406;9.984;2023-02-28T07:10:51;11.73;;;9.97;;
17993;SDS011;9122;48.406;9.984;2023-02-28T07:13:39;12.67;;;10.40;;
17993;SDS011;9122;48.406;9.984;2023-02-28T07:16:27;12.20;;;9.47;;
17993;SDS011;9122;48.406;9.984;2023-02-28T07:19:11;10.60;;;9.50;;
17993;SDS011;9122;48.406;9.984;2023-02-28T07:21:56;13.10;;;10.43;;
17993;SDS011;9122;48.406;9.984;2023-02-28T07:24:43;16.67;;;11.83;;
17993;SDS011;9122;48.406;9.984;2023-02-28T07:27:27;15.73;;;11.03;;
17993;SDS011;9122;48.406;9.984;2023-02-28T07:30:12;11.80;;;10.27;;
17993;SDS011;9122;48.406;9.984;2023-02-28T07:32:57;11.03;;;9.03;;
17993;SDS011;9122;48.406;9.984;2023-02-28T07:35:41;12.47;;;10.53;;
17993;SDS011;9122;48.406;9.984;2023-02-28T07:38:26;12.80;;;10.53;;
17993;SDS011;9122;48.406;9.984;2023-02-28T07:41:10;13.10;;;9.27;;
17993;SDS011;9122;48.406;9.984;2023-02-28T07:43:55;14.13;;;10.27;;
17993;SDS011;9122;48.406;9.984;2023-02-28T07:46:40;10.97;;;8.83;;
17993;SDS011;9122;48.406;9.984;2023-02-28T07:49:25;13.67;;;10.60;;
17993;SDS011;9122;48.406;9.984;2023-02-28T07:52:09;11.27;;;10.07;;
17993;SDS011;9122;48.406;9.984;2023-02-28T07:54:54;12.47;;;10.47;;
17993;SDS011;9122;48.406;9.984;2023-02-28T07:57:39;12.77;;;11.40;;
17993;SDS011;9122;48.406;9.984;2023-02-28T08:00:24;14.57;;;11.33;;
17993;SDS011;9122;48.406;9.984;2023-02-28T08:03:12;12.53;;;10.60;;
17993;SDS011;9122;48.406;9.984;2023-02-28T08:05:56;13.80;;;11.13;;
17993;SDS011;9122;48.406;9.984;2023-02-28T08:08:41;13.00;;;10.63;;
17993;SDS011;9122;48.406;9.984;2023-02-28T08:11:26;12.23;;;10.97;;
17993;SDS011;9122;48.406;9.984;2023-02-28T08:14:10;14.63;;;10.83;;
17993;SDS011;9122;48.406;9.984;2023-02-28T08:16:58;16.40;;;11.27;;
17993;SDS011;9122;48.406;9.984;2023-02-28T08:19:45;11.33;;;9.90;;
17993;SDS011;9122;48.406;9.984;2023-02-28T08:22:29;14.60;;;10.57;;
17993;SDS011;9122;48.406;9.984;2023-02-28T08:25:14;11.00;;;9.77;;
17993;SDS011;9122;48.406;9.984;2023-02-28T08:27:59;13.63;;;10.43;;
17993;SDS011;9122;48.406;9.984;2023-02-28T08:30:43;13.83;;;11.10;;
17993;SDS011;9122;48.406;9.984;2023-02-28T08:33:28;15.03;;;11.67;;
17993;SDS011;9122;48.406;9.984;2023-02-28T08:36:12;13.53;;;10.70;;
17993;SDS011;9122;48.406;9.984;2023-02-28T08:38:59;12.57;;;11.27;;
17993;SDS011;9122;48.406;9.984;2023-02-28T08:41:44;13.20;;;11.43;;
17993;SDS011;9122;48.406;9.984;2023-02-28T08:44:29;15.20;;;11.40;;
17993;SDS011;9122;48.406;9.984;2023-02-28T08:47:13;12.17;;;10.67;;
17993;SDS011;9122;48.406;9.984;2023-02-28T08:49:58;11.73;;;9.50;;
17993;SDS011;9122;48.406;9.984;2023-02-28T08:52:43;12.37;;;10.63;;
17993;SDS011;9122;48.406;9.984;2023-02-28T08:55:27;13.13;;;11.77;;
17993;SDS011;9122;48.406;9.984;2023-02-28T08:58:12;12.40;;;9.27;;
17993;SDS011;9122;48.406;9.984;2023-02-28T09:00:56;11.87;;;10.57;;
17993;SDS011;9122;48.406;9.984;2023-02-28T09:03:45;11.53;;;10.33;;
17993;SDS011;9122;48.406;9.984;2023-02-28T09:06:34;13.37;;;10.73;;
17993;SDS011;9122;48.406;9.984;2023-02-28T09:09:21;12.13;;;10.80;;
17993;SDS011;9122;48.406;9.984;2023-02-28T09:12:06;16.60;;;12.47;;
17993;SDS011;9122;48.406;9.984;2023-02-28T09:14:50;12.00;;;10.67;;
17993;SDS011;9122;48.406;9.984;2023-02-28T09:17:38;14.97;;;11.23;;
17993;SDS011;9122;48.406;9.984;2023-02-28T09:20:23;14.33;;;11.57;;
17993;SDS011;9122;48.406;9.984;2023-02-28T09:23:08;17.47;;;12.20;;
17993;SDS011;9122;48.406;9.984;2023-02-28T09:25:54;12.70;;;11.27;;
17993;SDS011;9122;48.406;9.984;2023-02-28T09:28:39;12.87;;;11.47;;
17993;SDS011;9122;48.406;9.984;2023-02-28T09:31:24;15.27;;;11.67;;
17993;SDS011;9122;48.406;9.984;2023-02-28T09:34:13;14.03;;;11.23;;
17993;SDS011;9122;48.406;9.984;2023-02-28T09:36:58;15.80;;;13.03;;
17993;SDS011;9122;48.406;9.984;2023-02-28T09:39:42;14.37;;;12.67;;
17993;SDS011;9122;48.406;9.984;2023-02-28T09:42:29;15.37;;;11.87;;
17993;SDS011;9122;48.406;9.984;2023-02-28T09:48:19;13.80;;;11.80;;
17993;SDS011;9122;48.406;9.984;2023-02-28T09:54:00;14.13;;;12.03;;
17993;SDS011;9122;48.406;9.984;2023-02-28T09:57:32;16.30;;;11.80;;
17993;SDS011;9122;48.406;9.984;2023-02-28T10:00:05;12.73;;;11.40;;
17993;SDS011;9122;48.406;9.984;2023-02-28T10:15:42;15.77;;;13.27;;
17993;SDS011;9122;48.406;9.984;2023-02-28T10:18:41;15.00;;;12.93;;
17993;SDS011;9122;48.406;9.984;2023-02-28T10:27:30;13.43;;;12.00;;
17993;SDS011;9122;48.406;9.984;2023-02-28T10:30:15;14.10;;;12.60;;
17993;SDS011;9122;48.406;9.984;2023-02-28T10:33:08;16.17;;;13.40;;
17993;SDS011;9122;48.406;9.984;2023-02-28T10:36:10;14.27;;;12.77;;
17993;SDS011;9122;48.406;9.984;2023-02-28T10:39:21;14.50;;;12.33;;
17993;SDS011;9122;48.406;9.984;2023-02-28T10:42:29;15.40;;;13.07;;
17993;SDS011;9122;48.406;9.984;2023-02-28T10:45:17;14.23;;;12.70;;
17993;SDS011;9122;48.406;9.984;2023-02-28T10:51:12;15.30;;;12.67;;
17993;SDS011;9122;48.406;9.984;2023-02-28T10:53:58;14.30;;;12.83;;
17993;SDS011;9122;48.406;9.984;2023-02-28T10:56:43;15.30;;;13.70;;
17993;SDS011;9122;48.406;9.984;2023-02-28T10:59:29;16.60;;;13.47;;
17993;SDS011;9122;48.406;9.984;2023-02-28T11:02:29;15.10;;;13.10;;
17993;SDS011;9122;48.406;9.984;2023-02-28T11:05:24;14.90;;;13.13;;
17993;SDS011;9122;48.406;9.984;2023-02-28T11:08:12;14.20;;;12.80;;
17993;SDS011;9122;48.406;9.984;2023-02-28T11:11:01;15.03;;;13.50;;
17993;SDS011;9122;48.406;9.984;2023-02-28T11:13:51;16.67;;;13.50;;
17993;SDS011;9122;48.406;9.984;2023-02-28T11:16:38;14.77;;;13.30;;
17993;SDS011;9122;48.406;9.984;2023-02-28T11:19:30;16.03;;;13.43;;
17993;SDS011;9122;48.406;9.984;2023-02-28T11:22:23;15.70;;;14.03;;
17993;SDS011;9122;48.406;9.984;2023-02-28T11:25:16;15.90;;;13.57;;
17993;SDS011;9122;48.406;9.984;2023-02-28T11:28:26;14.23;;;12.73;;
17993;SDS011;9122;48.406;9.984;2023-02-28T11:33:57;15.03;;;13.43;;
17993;SDS011;9122;48.406;9.984;2023-02-28T11:36:42;16.43;;;12.90;;
17993;SDS011;9122;48.406;9.984;2023-02-28T11:39:28;15.43;;;13.83;;
17993;SDS011;9122;48.406;9.984;2023-02-28T12:19:17;15.17;;;13.67;;
17993;SDS011;9122;48.406;9.984;2023-02-28T12:22:20;14.87;;;13.33;;
17993;SDS011;9122;48.406;9.984;2023-02-28T12:27:57;13.53;;;12.23;;
17993;SDS011;9122;48.406;9.984;2023-02-28T12:34:33;19.57;;;12.60;;
17993;SDS011;9122;48.406;9.984;2023-02-28T12:37:10;14.13;;;12.23;;
17993;SDS011;9122;48.406;9.984;2023-02-28T12:40:02;14.63;;;13.00;;
17993;SDS011;9122;48.406;9.984;2023-02-28T12:42:57;16.10;;;13.67;;
17993;SDS011;9122;48.406;9.984;2023-02-28T12:45:47;14.57;;;13.07;;
17993;SDS011;9122;48.406;9.984;2023-02-28T12:49:06;14.50;;;12.50;;
17993;SDS011;9122;48.406;9.984;2023-02-28T12:51:55;14.37;;;12.70;;
17993;SDS011;9122;48.406;9.984;2023-02-28T12:54:44;17.33;;;13.13;;
17993;SDS011;9122;48.406;9.984;2023-02-28T13:00:56;14.23;;;12.73;;
17993;SDS011;9122;48.406;9.984;2023-02-28T13:04:13;15.70;;;13.43;;
17993;SDS011;9122;48.406;9.984;2023-02-28T13:10:09;12.67;;;11.37;;
17993;SDS011;9122;48.406;9.984;2023-02-28T13:12:54;15.70;;;13.07;;
17993;SDS011;9122;48.406;9.984;2023-02-28T13:15:40;14.33;;;12.67;;
17993;SDS011;9122;48.406;9.984;2023-02-28T13:18:38;15.40;;;13.20;;
17993;SDS011;9122;48.406;9.984;2023-02-28T13:21:27;13.33;;;11.93;;
17993;SDS011;9122;48.406;9.984;2023-02-28T13:24:36;13.90;;;12.40;;
17993;SDS011;9122;48.406;9.984;2023-02-28T13:27:22;14.07;;;12.67;;
17993;SDS011;9122;48.406;9.984;2023-02-28T13:30:59;13.90;;;11.73;;
17993;SDS011;9122;48.406;9.984;2023-02-28T13:36:37;13.57;;;12.17;;
17993;SDS011;9122;48.406;9.984;2023-02-28T13:40:06;17.30;;;12.53;;
17993;SDS011;9122;48.406;9.984;2023-02-28T13:45:29;13.83;;;12.27;;
17993;SDS011;9122;48.406;9.984;2023-02-28T13:48:15;12.93;;;11.63;;
17993;SDS011;9122;48.406;9.984;2023-02-28T13:51:22;13.67;;;11.63;;
17993;SDS011;9122;48.406;9.984;2023-02-28T13:58:01;13.00;;;11.57;;
17993;SDS011;9122;48.406;9.984;2023-02-28T14:07:04;12.73;;;11.47;;
17993;SDS011;9122;48.406;9.984;2023-02-28T14:09:53;12.60;;;10.83;;
17993;SDS011;9122;48.406;9.984;2023-02-28T14:13:03;15.60;;;11.60;;
17993;SDS011;9122;48.406;9.984;2023-02-28T14:21:43;12.13;;;10.93;;
17993;SDS011;9122;48.406;9.984;2023-02-28T14:27:33;12.57;;;11.37;;
17993;SDS011;9122;48.406;9.984;2023-02-28T14:36:57;13.33;;;10.80;;
17993;SDS011;9122;48.406;9.984;2023-02-28T14:39:45;13.03;;;11.73;;
17993;SDS011;9122;48.406;9.984;2023-02-28T14:42:32;12.70;;;11.40;;
17993;SDS011;9122;48.406;9.984;2023-02-28T14:45:21;13.77;;;11.60;;
17993;SDS011;9122;48.406;9.984;2023-02-28T14:48:08;12.20;;;11.00;;
17993;SDS011;9122;48.406;9.984;2023-02-28T14:50:55;14.13;;;10.93;;
17993;SDS011;9122;48.406;9.984;2023-02-28T14:53:43;17.77;;;10.93;;
17993;SDS011;9122;48.406;9.984;2023-02-28T14:56:36;12.57;;;11.07;;
17993;SDS011;9122;48.406;9.984;2023-02-28T14:59:23;11.83;;;10.57;;
17993;SDS011;9122;48.406;9.984;2023-02-28T15:02:17;12.60;;;11.23;;
17993;SDS011;9122;48.406;9.984;2023-02-28T15:05:51;13.30;;;11.90;;
17993;SDS011;9122;48.406;9.984;2023-02-28T15:08:17;12.60;;;11.07;;
17993;SDS011;9122;48.406;9.984;2023-02-28T15:11:04;12.33;;;9.77;;
17993;SDS011;9122;48.406;9.984;2023-02-28T15:13:53;14.07;;;10.90;;
17993;SDS011;9122;48.406;9.984;2023-02-28T15:16:41;13.33;;;11.50;;
17993;SDS011;9122;48.406;9.984;2023-02-28T15:19:32;14.13;;;10.53;;
17993;SDS011;9122;48.406;9.984;2023-02-28T15:22:22;12.07;;;10.87;;
17993;SDS011;9122;48.406;9.984;2023-02-28T15:25:17;12.40;;;11.20;;
17993;SDS011;9122;48.406;9.984;2023-02-28T15:28:05;11.23;;;10.03;;
17993;SDS011;9122;48.406;9.984;2023-02-28T15:31:17;12.87;;;11.47;;
17993;SDS011;9122;48.406;9.984;2023-02-28T15:34:05;12.73;;;11.33;;
17993;SDS011;9122;48.406;9.984;2023-02-28T15:36:50;13.30;;;11.23;;
17993;SDS011;9122;48.406;9.984;2023-02-28T15:39:40;12.07;;;10.73;;
17993;SDS011;9122;48.406;9.984;2023-02-28T15:42:28;13.30;;;10.83;;
17993;SDS011;9122;48.406;9.984;2023-02-28T15:45:35;11.43;;;10.27;;
17993;SDS011;9122;48.406;9.984;2023-02-28T15:48:27;12.50;;;11.27;;
17993;SDS011;9122;48.406;9.984;2023-02-28T15:51:22;11.07;;;9.97;;
17993;SDS011;9122;48.406;9.984;2023-02-28T15:54:16;11.67;;;10.47;;
17993;SDS011;9122;48.406;9.984;2023-02-28T15:57:13;11.20;;;10.13;;
17993;SDS011;9122;48.406;9.984;2023-02-28T16:00:11;11.67;;;10.37;;
17993;SDS011;9122;48.406;9.984;2023-02-28T16:03:00;12.63;;;11.10;;
17993;SDS011;9122;48.406;9.984;2023-02-28T16:05:45;12.20;;;10.50;;
17993;SDS011;9122;48.406;9.984;2023-02-28T16:08:51;11.27;;;10.17;;
17993;SDS011;9122;48.406;9.984;2023-02-28T16:11:45;11.13;;;9.90;;
17993;SDS011;9122;48.406;9.984;2023-02-28T16:14:32;12.13;;;10.87;;
17993;SDS011;9122;48.406;9.984;2023-02-28T16:17:24;11.80;;;10.57;;
17993;SDS011;9122;48.406;9.984;2023-02-28T16:22:59;12.23;;;11.03;;
17993;SDS011;9122;48.406;9.984;2023-02-28T16:25:49;11.20;;;10.10;;
17993;SDS011;9122;48.406;9.984;2023-02-28T16:28:35;12.17;;;10.90;;
17993;SDS011;9122;48.406;9.984;2023-02-28T16:31:22;12.63;;;10.77;;
17993;SDS011;9122;48.406;9.984;2023-02-28T16:34:07;12.43;;;11.13;;
17993;SDS011;9122;48.406;9.984;2023-02-28T16:36:52;13.03;;;11.27;;
17993;SDS011;9122;48.406;9.984;2023-02-28T16:39:36;14.00;;;10.67;;
17993;SDS011;9122;48.406;9.984;2023-02-28T16:42:25;12.50;;;11.17;;
17993;SDS011;9122;48.406;9.984;2023-02-28T16:45:14;14.70;;;10.80;;
17993;SDS011;9122;48.406;9.984;2023-02-28T16:48:11;12.33;;;11.13;;
17993;SDS011;9122;48.406;9.984;2023-02-28T16:50:58;11.80;;;10.60;;
17993;SDS011;9122;48.406;9.984;2023-02-28T16:53:43;13.00;;;11.50;;
17993;SDS011;9122;48.406;9.984;2023-02-28T16:56:28;13.03;;;11.63;;
17993;SDS011;9122;48.406;9.984;2023-02-28T16:59:19;11.93;;;10.67;;
17993;SDS011;9122;48.406;9.984;2023-02-28T17:02:10;13.07;;;11.10;;
17993;SDS011;9122;48.406;9.984;2023-02-28T17:05:03;12.97;;;11.50;;
17993;SDS011;9122;48.406;9.984;2023-02-28T17:07:48;13.43;;;12.03;;
17993;SDS011;9122;48.406;9.984;2023-02-28T17:10:33;13.70;;;11.70;;
17993;SDS011;9122;48.406;9.984;2023-02-28T17:13:18;13.30;;;11.53;;
17993;SDS011;9122;48.406;9.984;2023-02-28T17:16:02;13.43;;;12.07;;
17993;SDS011;9122;48.406;9.984;2023-02-28T17:18:48;13.10;;;11.80;;
17993;SDS011;9122;48.406;9.984;2023-02-28T17:21:34;15.27;;;11.93;;
17993;SDS011;9122;48.406;9.984;2023-02-28T17:24:18;14.13;;;12.03;;
17993;SDS011;9122;48.406;9.984;2023-02-28T17:27:03;12.70;;;11.20;;
17993;SDS011;9122;48.406;9.984;2023-02-28T17:29:51;12.63;;;11.33;;
17993;SDS011;9122;48.406;9.984;2023-02-28T17:32:36;16.13;;;12.50;;
17993;SDS011;9122;48.406;9.984;2023-02-28T17:35:23;12.50;;;11.20;;
17993;SDS011;9122;48.406;9.984;2023-02-28T17:38:18;12.27;;;10.97;;
17993;SDS011;9122;48.406;9.984;2023-02-28T17:41:03;13.60;;;12.07;;
17993;SDS011;9122;48.406;9.984;2023-02-28T17:43:48;12.20;;;11.00;;
17993;SDS011;9122;48.406;9.984;2023-02-28T17:46:33;13.00;;;11.70;;
17993;SDS011;9122;48.406;9.984;2023-02-28T17:49:18;13.67;;;12.10;;
17993;SDS011;9122;48.406;9.984;2023-02-28T17:52:03;13.73;;;11.83;;
17993;SDS011;9122;48.406;9.984;2023-02-28T17:54:48;14.33;;;11.83;;
17993;SDS011;9122;48.406;9.984;2023-02-28T17:57:32;13.10;;;11.30;;
17993;SDS011;9122;48.406;9.984;2023-02-28T18:00:17;12.63;;;11.30;;
17993;SDS011;9122;48.406;9.984;2023-02-28T18:03:02;14.70;;;11.53;;
17993;SDS011;9122;48.406;9.984;2023-02-28T18:05:47;14.37;;;12.13;;
17993;SDS011;9122;48.406;9.984;2023-02-28T18:08:38;12.07;;;10.77;;
17993;SDS011;9122;48.406;9.984;2023-02-28T18:11:23;13.73;;;11.90;;
17993;SDS011;9122;48.406;9.984;2023-02-28T18:14:08;13.17;;;11.80;;
17993;SDS011;9122;48.406;9.984;2023-02-28T18:16:55;13.07;;;11.67;;
17993;SDS011;9122;48.406;9.984;2023-02-28T18:19:40;17.90;;;12.20;;
17993;SDS011;9122;48.406;9.984;2023-02-28T18:22:25;11.83;;;10.63;;
17993;SDS011;9122;48.406;9.984;2023-02-28T18:25:10;14.03;;;11.27;;
17993;SDS011;9122;48.406;9.984;2023-02-28T18:27:59;16.03;;;11.70;;
17993;SDS011;9122;48.406;9.984;2023-02-28T18:30:48;15.03;;;11.40;;
17993;SDS011;9122;48.406;9.984;2023-02-28T18:33:33;13.97;;;11.27;;
17993;SDS011;9122;48.406;9.984;2023-02-28T18:36:18;12.03;;;10.77;;
17993;SDS011;9122;48.406;9.984;2023-02-28T18:39:07;14.27;;;11.60;;
17993;SDS011;9122;48.406;9.984;2023-02-28T18:41:54;16.03;;;12.47;;
17993;SDS011;9122;48.406;9.984;2023-02-28T18:44:39;15.10;;;12.93;;
17993;SDS011;9122;48.406;9.984;2023-02-28T18:47:23;14.83;;;12.53;;
17993;SDS011;9122;48.406;9.984;2023-02-28T18:50:09;14.57;;;13.07;;
17993;SDS011;9122;48.406;9.984;2023-02-28T18:52:54;15.93;;;13.13;;
17993;SDS011;9122;48.406;9.984;2023-02-28T18:55:40;13.50;;;12.07;;
17993;SDS011;9122;48.406;9.984;2023-02-28T18:58:25;15.20;;;13.00;;
17993;SDS011;9122;48.406;9.984;2023-02-28T19:01:32;15.70;;;13.23;;
17993;SDS011;9122;48.406;9.984;2023-02-28T19:04:16;14.97;;;12.80;;
17993;SDS011;9122;48.406;9.984;2023-02-28T19:07:01;15.70;;;13.20;;
17993;SDS011;9122;48.406;9.984;2023-02-28T19:09:47;16.80;;;13.50;;
17993;SDS011;9122;48.406;9.984;2023-02-28T19:12:35;14.73;;;12.83;;
17993;SDS011;9122;48.406;9.984;2023-02-28T19:15:20;18.07;;;13.07;;
17993;SDS011;9122;48.406;9.984;2023-02-28T19:18:05;15.87;;;12.93;;
17993;SDS011;9122;48.406;9.984;2023-02-28T19:20:49;16.37;;;13.83;;
17993;SDS011;9122;48.406;9.984;2023-02-28T19:23:34;16.23;;;13.37;;
17993;SDS011;9122;48.406;9.984;2023-02-28T19:26:23;15.23;;;13.37;;
17993;SDS011;9122;48.406;9.984;2023-02-28T19:29:09;16.50;;;13.53;;